sensor_id;sensor_type;location;lat;lon;timestamp;P1;durP1;ratioP1;P2;durP2;ratioP2
10805;SDS011;5455;53.224;6.000;2023-05-20T00:00:52;5.57;;;2.50;;
10805;SDS011;5455;53.224;6.000;2023-05-20T00:03:19;6.80;;;2.50;;
10805;SDS011;5455;53.224;6.000;2023-05-20T00:05:46;4.80;;;2.40;;
10805;SDS011;5455;53.224;6.000;2023-05-20T00:08:14;5.20;;;2.40;;
10805;SDS011;5455;53.224;6.000;2023-05-20T00:10:41;6.80;;;2.37;;
10805;SDS011;5455;53.224;6.000;2023-05-20T00:13:08;10.93;;;2.60;;
10805;SDS011;5455;53.224;6.000;2023-05-20T00:15:35;7.60;;;2.63;;
10805;SDS011;5455;53.224;6.000;2023-05-20T00:18:03;7.80;;;2.70;;
10805;SDS011;5455;53.224;6.000;2023-05-20T00:20:31;8.00;;;1.97;;
10805;SDS011;5455;53.224;6.000;2023-05-20T00:22:58;6.20;;;2.33;;
10805;SDS011;5455;53.224;6.000;2023-05-20T00:25:25;7.27;;;2.47;;
10805;SDS011;5455;53.224;6.000;2023-05-20T00:27:52;8.50;;;4.07;;
10805;SDS011;5455;53.224;6.000;2023-05-20T00:30:19;8.03;;;2.60;;
10805;SDS011;5455;53.224;6.000;2023-05-20T00:32:47;9.93;;;2.73;;
10805;SDS011;5455;53.224;6.000;2023-05-20T00:35:14;4.77;;;2.40;;
10805;SDS011;5455;53.224;6.000;2023-05-20T00:37:41;6.80;;;2.30;;
10805;SDS011;5455;53.224;6.000;2023-05-20T00:40:08;7.97;;;2.50;;
10805;SDS011;5455;53.224;6.000;2023-05-20T00:42:38;6.70;;;2.57;;
10805;SDS011;5455;53.224;6.000;2023-05-20T00:45:05;9.97;;;2.50;;
10805;SDS011;5455;53.224;6.000;2023-05-20T00:47:33;6.07;;;2.70;;
10805;SDS011;5455;53.224;6.000;2023-05-20T00:50:02;17.03;;;2.73;;
10805;SDS011;5455;53.224;6.000;2023-05-20T00:52:30;10.40;;;2.80;;
10805;SDS011;5455;53.224;6.000;2023-05-20T00:54:58;6.23;;;2.70;;
10805;SDS011;5455;53.224;6.000;2023-05-20T00:57:26;12.77;;;2.80;;
10805;SDS011;5455;53.224;6.000;2023-05-20T00:59:53;6.30;;;2.50;;
10805;SDS011;5455;53.224;6.000;2023-05-20T01:02:21;8.13;;;3.03;;
10805;SDS011;5455;53.224;6.000;2023-05-20T01:04:48;5.50;;;2.63;;
10805;SDS011;5455;53.224;6.000;2023-05-20T01:07:16;7.70;;;2.77;;
10805;SDS011;5455;53.224;6.000;2023-05-20T01:09:44;6.27;;;2.60;;
10805;SDS011;5455;53.224;6.000;2023-05-20T01:12:14;8.50;;;2.63;;
10805;SDS011;5455;53.224;6.000;2023-05-20T01:15:17;5.23;;;2.73;;
10805;SDS011;5455;53.224;6.000;2023-05-20T01:17:39;6.00;;;2.90;;
10805;SDS011;5455;53.224;6.000;2023-05-20T01:20:12;8.80;;;2.90;;
10805;SDS011;5455;53.224;6.000;2023-05-20T01:22:51;8.17;;;3.00;;
10805;SDS011;5455;53.224;6.000;2023-05-20T01:25:20;7.63;;;3.13;;
10805;SDS011;5455;53.224;6.000;2023-05-20T01:27:47;6.87;;;3.13;;
10805;SDS011;5455;53.224;6.000;2023-05-20T01:30:15;7.77;;;3.17;;
10805;SDS011;5455;53.224;6.000;2023-05-20T01:32:49;6.40;;;2.67;;
10805;SDS011;5455;53.224;6.000;2023-05-20T01:35:19;6.97;;;2.80;;
10805;SDS011;5455;53.224;6.000;2023-05-20T01:37:49;6.53;;;2.83;;
10805;SDS011;5455;53.224;6.000;2023-05-20T01:40:19;12.57;;;2.83;;
10805;SDS011;5455;53.224;6.000;2023-05-20T01:42:46;7.77;;;2.53;;
10805;SDS011;5455;53.224;6.000;2023-05-20T01:45:19;7.87;;;2.87;;
10805;SDS011;5455;53.224;6.000;2023-05-20T01:47:46;5.60;;;2.67;;
10805;SDS011;5455;53.224;6.000;2023-05-20T01:50:15;7.47;;;2.67;;
10805;SDS011;5455;53.224;6.000;2023-05-20T01:52:42;8.57;;;2.80;;
10805;SDS011;5455;53.224;6.000;2023-05-20T01:55:09;7.47;;;2.40;;
10805;SDS011;5455;53.224;6.000;2023-05-20T01:57:36;7.67;;;2.80;;
10805;SDS011;5455;53.224;6.000;2023-05-20T02:00:03;8.83;;;3.03;;
10805;SDS011;5455;53.224;6.000;2023-05-20T02:02:38;5.73;;;2.63;;
10805;SDS011;5455;53.224;6.000;2023-05-20T02:05:08;8.87;;;3.27;;
10805;SDS011;5455;53.224;6.000;2023-05-20T02:07:35;7.27;;;3.00;;
10805;SDS011;5455;53.224;6.000;2023-05-20T02:10:02;8.53;;;3.73;;
10805;SDS011;5455;53.224;6.000;2023-05-20T02:12:30;9.47;;;3.00;;
10805;SDS011;5455;53.224;6.000;2023-05-20T02:14:57;10.27;;;3.00;;
10805;SDS011;5455;53.224;6.000;2023-05-20T02:17:24;6.07;;;2.93;;
10805;SDS011;5455;53.224;6.000;2023-05-20T02:19:51;6.20;;;2.80;;
10805;SDS011;5455;53.224;6.000;2023-05-20T02:22:18;5.87;;;2.80;;
10805;SDS011;5455;53.224;6.000;2023-05-20T02:24:46;8.43;;;2.87;;
10805;SDS011;5455;53.224;6.000;2023-05-20T02:27:14;6.07;;;2.97;;
10805;SDS011;5455;53.224;6.000;2023-05-20T02:29:42;5.90;;;2.93;;
10805;SDS011;5455;53.224;6.000;2023-05-20T02:32:10;8.53;;;2.87;;
10805;SDS011;5455;53.224;6.000;2023-05-20T02:34:38;7.50;;;3.60;;
10805;SDS011;5455;53.224;6.000;2023-05-20T02:37:05;6.43;;;2.67;;
10805;SDS011;5455;53.224;6.000;2023-05-20T02:39:32;4.93;;;2.60;;
10805;SDS011;5455;53.224;6.000;2023-05-20T02:41:59;7.97;;;3.03;;
10805;SDS011;5455;53.224;6.000;2023-05-20T02:44:26;6.47;;;2.97;;
10805;SDS011;5455;53.224;6.000;2023-05-20T02:46:53;7.53;;;3.20;;
10805;SDS011;5455;53.224;6.000;2023-05-20T02:49:20;6.87;;;3.10;;
10805;SDS011;5455;53.224;6.000;2023-05-20T02:51:47;9.73;;;2.63;;
10805;SDS011;5455;53.224;6.000;2023-05-20T02:54:15;8.53;;;2.70;;
10805;SDS011;5455;53.224;6.000;2023-05-20T02:56:42;7.27;;;3.00;;
10805;SDS011;5455;53.224;6.000;2023-05-20T02:59:10;10.10;;;2.93;;
10805;SDS011;5455;53.224;6.000;2023-05-20T03:01:37;7.30;;;2.37;;
10805;SDS011;5455;53.224;6.000;2023-05-20T03:04:06;4.50;;;2.83;;
10805;SDS011;5455;53.224;6.000;2023-05-20T03:06:33;7.13;;;3.13;;
10805;SDS011;5455;53.224;6.000;2023-05-20T03:09:00;4.47;;;2.27;;
10805;SDS011;5455;53.224;6.000;2023-05-20T03:11:28;9.80;;;3.40;;
10805;SDS011;5455;53.224;6.000;2023-05-20T03:13:55;6.70;;;2.80;;
10805;SDS011;5455;53.224;6.000;2023-05-20T03:16:22;5.70;;;2.40;;
10805;SDS011;5455;53.224;6.000;2023-05-20T03:18:50;5.93;;;3.00;;
10805;SDS011;5455;53.224;6.000;2023-05-20T03:21:18;4.33;;;2.47;;
10805;SDS011;5455;53.224;6.000;2023-05-20T03:23:45;6.50;;;2.80;;
10805;SDS011;5455;53.224;6.000;2023-05-20T03:26:12;4.77;;;2.80;;
10805;SDS011;5455;53.224;6.000;2023-05-20T03:28:39;4.10;;;2.60;;
10805;SDS011;5455;53.224;6.000;2023-05-20T03:31:07;6.90;;;2.90;;
10805;SDS011;5455;53.224;6.000;2023-05-20T03:33:34;6.93;;;2.37;;
10805;SDS011;5455;53.224;6.000;2023-05-20T03:36:03;3.20;;;2.43;;
10805;SDS011;5455;53.224;6.000;2023-05-20T03:38:31;5.23;;;2.27;;
10805;SDS011;5455;53.224;6.000;2023-05-20T03:40:58;4.57;;;2.20;;
10805;SDS011;5455;53.224;6.000;2023-05-20T03:43:25;4.93;;;2.53;;
10805;SDS011;5455;53.224;6.000;2023-05-20T03:45:53;6.97;;;2.20;;
10805;SDS011;5455;53.224;6.000;2023-05-20T03:48:21;6.10;;;2.37;;
10805;SDS011;5455;53.224;6.000;2023-05-20T03:50:48;7.17;;;2.13;;
10805;SDS011;5455;53.224;6.000;2023-05-20T03:53:15;6.13;;;2.50;;
10805;SDS011;5455;53.224;6.000;2023-05-20T03:55:43;3.63;;;2.00;;
10805;SDS011;5455;53.224;6.000;2023-05-20T03:58:11;7.03;;;2.77;;
10805;SDS011;5455;53.224;6.000;2023-05-20T04:00:39;4.73;;;2.10;;
10805;SDS011;5455;53.224;6.000;2023-05-20T04:03:07;5.47;;;2.00;;
10805;SDS011;5455;53.224;6.000;2023-05-20T04:05:34;7.63;;;2.30;;
10805;SDS011;5455;53.224;6.000;2023-05-20T04:08:06;3.00;;;1.90;;
10805;SDS011;5455;53.224;6.000;2023-05-20T04:10:33;3.17;;;1.87;;
10805;SDS011;5455;53.224;6.000;2023-05-20T04:13:00;3.73;;;1.80;;
10805;SDS011;5455;53.224;6.000;2023-05-20T04:15:27;5.00;;;1.90;;
10805;SDS011;5455;53.224;6.000;2023-05-20T04:17:57;3.57;;;1.20;;
10805;SDS011;5455;53.224;6.000;2023-05-20T04:20:24;3.00;;;1.63;;
10805;SDS011;5455;53.224;6.000;2023-05-20T04:22:54;2.23;;;1.43;;
10805;SDS011;5455;53.224;6.000;2023-05-20T04:25:22;2.20;;;1.50;;
10805;SDS011;5455;53.224;6.000;2023-05-20T04:27:49;2.60;;;1.47;;
10805;SDS011;5455;53.224;6.000;2023-05-20T04:30:19;3.40;;;1.40;;
10805;SDS011;5455;53.224;6.000;2023-05-20T04:32:48;7.30;;;3.37;;
10805;SDS011;5455;53.224;6.000;2023-05-20T04:35:16;2.17;;;1.37;;
10805;SDS011;5455;53.224;6.000;2023-05-20T04:37:46;5.23;;;1.57;;
10805;SDS011;5455;53.224;6.000;2023-05-20T04:40:14;3.10;;;1.50;;
10805;SDS011;5455;53.224;6.000;2023-05-20T04:42:41;5.77;;;1.43;;
10805;SDS011;5455;53.224;6.000;2023-05-20T04:45:10;1.97;;;1.10;;
10805;SDS011;5455;53.224;6.000;2023-05-20T04:47:39;3.00;;;1.40;;
10805;SDS011;5455;53.224;6.000;2023-05-20T04:50:08;2.70;;;1.40;;
10805;SDS011;5455;53.224;6.000;2023-05-20T04:52:39;1.93;;;1.20;;
10805;SDS011;5455;53.224;6.000;2023-05-20T04:55:07;2.97;;;1.40;;
10805;SDS011;5455;53.224;6.000;2023-05-20T04:57:36;1.73;;;1.10;;
10805;SDS011;5455;53.224;6.000;2023-05-20T05:00:06;2.00;;;1.40;;
10805;SDS011;5455;53.224;6.000;2023-05-20T05:02:35;3.50;;;1.10;;
10805;SDS011;5455;53.224;6.000;2023-05-20T05:05:02;2.67;;;1.20;;
10805;SDS011;5455;53.224;6.000;2023-05-20T05:07:30;2.37;;;1.20;;
10805;SDS011;5455;53.224;6.000;2023-05-20T05:09:57;3.77;;;1.03;;
10805;SDS011;5455;53.224;6.000;2023-05-20T05:12:26;2.70;;;1.00;;
10805;SDS011;5455;53.224;6.000;2023-05-20T05:14:54;1.97;;;1.20;;
10805;SDS011;5455;53.224;6.000;2023-05-20T05:17:21;7.17;;;1.03;;
10805;SDS011;5455;53.224;6.000;2023-05-20T05:19:48;4.07;;;1.20;;
10805;SDS011;5455;53.224;6.000;2023-05-20T05:22:16;3.27;;;1.20;;
10805;SDS011;5455;53.224;6.000;2023-05-20T05:24:43;1.97;;;1.20;;
10805;SDS011;5455;53.224;6.000;2023-05-20T05:27:10;2.53;;;1.07;;
10805;SDS011;5455;53.224;6.000;2023-05-20T05:29:37;4.47;;;1.10;;
10805;SDS011;5455;53.224;6.000;2023-05-20T05:32:04;2.90;;;1.30;;
10805;SDS011;5455;53.224;6.000;2023-05-20T05:34:32;2.53;;;1.20;;
10805;SDS011;5455;53.224;6.000;2023-05-20T05:36:59;2.30;;;0.87;;
10805;SDS011;5455;53.224;6.000;2023-05-20T05:39:26;2.23;;;1.07;;
10805;SDS011;5455;53.224;6.000;2023-05-20T05:41:53;2.43;;;0.90;;
10805;SDS011;5455;53.224;6.000;2023-05-20T05:44:22;1.77;;;1.20;;
10805;SDS011;5455;53.224;6.000;2023-05-20T05:46:49;1.27;;;0.70;;
10805;SDS011;5455;53.224;6.000;2023-05-20T05:49:16;2.73;;;1.17;;
10805;SDS011;5455;53.224;6.000;2023-05-20T05:51:43;2.03;;;1.07;;
10805;SDS011;5455;53.224;6.000;2023-05-20T05:54:10;2.00;;;1.03;;
10805;SDS011;5455;53.224;6.000;2023-05-20T05:56:38;2.17;;;1.07;;
10805;SDS011;5455;53.224;6.000;2023-05-20T05:59:04;2.87;;;1.20;;
10805;SDS011;5455;53.224;6.000;2023-05-20T06:01:32;1.20;;;0.97;;
10805;SDS011;5455;53.224;6.000;2023-05-20T06:03:59;3.07;;;1.00;;
10805;SDS011;5455;53.224;6.000;2023-05-20T06:06:29;2.83;;;1.07;;
10805;SDS011;5455;53.224;6.000;2023-05-20T06:08:56;3.20;;;1.00;;
10805;SDS011;5455;53.224;6.000;2023-05-20T06:11:24;2.83;;;1.03;;
10805;SDS011;5455;53.224;6.000;2023-05-20T06:13:51;0.90;;;0.63;;
10805;SDS011;5455;53.224;6.000;2023-05-20T06:16:19;1.00;;;0.90;;
10805;SDS011;5455;53.224;6.000;2023-05-20T06:18:46;2.13;;;1.00;;
10805;SDS011;5455;53.224;6.000;2023-05-20T06:21:13;1.23;;;0.70;;
10805;SDS011;5455;53.224;6.000;2023-05-20T06:23:40;3.87;;;0.90;;
10805;SDS011;5455;53.224;6.000;2023-05-20T06:26:10;1.13;;;0.77;;
10805;SDS011;5455;53.224;6.000;2023-05-20T06:28:37;2.07;;;1.00;;
10805;SDS011;5455;53.224;6.000;2023-05-20T06:31:04;2.00;;;0.90;;
10805;SDS011;5455;53.224;6.000;2023-05-20T06:33:33;3.03;;;1.00;;
10805;SDS011;5455;53.224;6.000;2023-05-20T06:36:05;1.47;;;0.87;;
10805;SDS011;5455;53.224;6.000;2023-05-20T06:38:32;1.43;;;0.80;;
10805;SDS011;5455;53.224;6.000;2023-05-20T06:41:00;3.63;;;0.70;;
10805;SDS011;5455;53.224;6.000;2023-05-20T06:43:28;1.83;;;0.90;;
10805;SDS011;5455;53.224;6.000;2023-05-20T06:46:03;1.63;;;0.50;;
10805;SDS011;5455;53.224;6.000;2023-05-20T06:48:52;2.10;;;0.80;;
10805;SDS011;5455;53.224;6.000;2023-05-20T06:51:19;0.97;;;0.60;;
10805;SDS011;5455;53.224;6.000;2023-05-20T06:53:48;1.73;;;0.80;;
10805;SDS011;5455;53.224;6.000;2023-05-20T06:56:15;2.43;;;0.80;;
10805;SDS011;5455;53.224;6.000;2023-05-20T06:58:42;1.53;;;0.80;;
10805;SDS011;5455;53.224;6.000;2023-05-20T07:01:10;1.30;;;0.70;;
10805;SDS011;5455;53.224;6.000;2023-05-20T07:03:38;1.10;;;0.60;;
10805;SDS011;5455;53.224;6.000;2023-05-20T07:06:06;1.67;;;0.80;;
10805;SDS011;5455;53.224;6.000;2023-05-20T07:08:33;3.73;;;1.10;;
10805;SDS011;5455;53.224;6.000;2023-05-20T07:11:01;2.20;;;0.80;;
10805;SDS011;5455;53.224;6.000;2023-05-20T07:13:28;4.47;;;0.70;;
10805;SDS011;5455;53.224;6.000;2023-05-20T07:15:57;4.23;;;1.13;;
10805;SDS011;5455;53.224;6.000;2023-05-20T07:18:25;1.80;;;0.97;;
10805;SDS011;5455;53.224;6.000;2023-05-20T07:20:54;3.23;;;0.87;;
10805;SDS011;5455;53.224;6.000;2023-05-20T07:23:43;3.67;;;1.20;;
10805;SDS011;5455;53.224;6.000;2023-05-20T07:26:10;3.70;;;0.80;;
10805;SDS011;5455;53.224;6.000;2023-05-20T07:28:37;1.27;;;0.77;;
10805;SDS011;5455;53.224;6.000;2023-05-20T07:31:04;2.70;;;0.90;;
10805;SDS011;5455;53.224;6.000;2023-05-20T07:33:37;2.23;;;0.80;;
10805;SDS011;5455;53.224;6.000;2023-05-20T07:36:05;3.13;;;1.20;;
10805;SDS011;5455;53.224;6.000;2023-05-20T07:38:37;3.70;;;0.97;;
10805;SDS011;5455;53.224;6.000;2023-05-20T07:41:07;2.77;;;0.90;;
10805;SDS011;5455;53.224;6.000;2023-05-20T07:43:35;2.57;;;1.07;;
10805;SDS011;5455;53.224;6.000;2023-05-20T07:46:02;2.10;;;0.97;;
10805;SDS011;5455;53.224;6.000;2023-05-20T07:48:29;2.43;;;0.77;;
10805;SDS011;5455;53.224;6.000;2023-05-20T07:50:56;5.03;;;1.00;;
10805;SDS011;5455;53.224;6.000;2023-05-20T07:53:25;2.43;;;1.17;;
10805;SDS011;5455;53.224;6.000;2023-05-20T07:55:53;3.20;;;0.80;;
10805;SDS011;5455;53.224;6.000;2023-05-20T07:58:20;2.27;;;0.80;;
10805;SDS011;5455;53.224;6.000;2023-05-20T08:00:48;3.90;;;1.20;;
10805;SDS011;5455;53.224;6.000;2023-05-20T08:03:15;3.90;;;1.00;;
10805;SDS011;5455;53.224;6.000;2023-05-20T08:06:12;3.53;;;1.00;;
10805;SDS011;5455;53.224;6.000;2023-05-20T08:08:41;1.47;;;0.73;;
10805;SDS011;5455;53.224;6.000;2023-05-20T08:11:16;5.10;;;0.90;;
10805;SDS011;5455;53.224;6.000;2023-05-20T08:13:43;1.43;;;0.80;;
10805;SDS011;5455;53.224;6.000;2023-05-20T08:16:10;1.70;;;0.90;;
10805;SDS011;5455;53.224;6.000;2023-05-20T08:18:37;2.13;;;0.90;;
10805;SDS011;5455;53.224;6.000;2023-05-20T08:21:05;3.57;;;1.07;;
10805;SDS011;5455;53.224;6.000;2023-05-20T08:23:36;4.97;;;1.03;;
10805;SDS011;5455;53.224;6.000;2023-05-20T08:26:06;1.43;;;1.23;;
10805;SDS011;5455;53.224;6.000;2023-05-20T08:28:35;1.83;;;0.90;;
10805;SDS011;5455;53.224;6.000;2023-05-20T08:31:03;2.73;;;1.00;;
10805;SDS011;5455;53.224;6.000;2023-05-20T08:33:32;4.50;;;1.20;;
10805;SDS011;5455;53.224;6.000;2023-05-20T08:35:59;3.43;;;0.97;;
10805;SDS011;5455;53.224;6.000;2023-05-20T08:38:27;2.17;;;0.93;;
10805;SDS011;5455;53.224;6.000;2023-05-20T08:40:55;1.60;;;0.90;;
10805;SDS011;5455;53.224;6.000;2023-05-20T08:43:23;3.90;;;1.03;;
10805;SDS011;5455;53.224;6.000;2023-05-20T08:45:50;0.70;;;0.63;;
10805;SDS011;5455;53.224;6.000;2023-05-20T08:48:19;3.43;;;1.10;;
10805;SDS011;5455;53.224;6.000;2023-05-20T08:50:50;1.40;;;0.70;;
10805;SDS011;5455;53.224;6.000;2023-05-20T08:53:19;2.20;;;0.90;;
10805;SDS011;5455;53.224;6.000;2023-05-20T08:55:54;3.03;;;1.20;;
10805;SDS011;5455;53.224;6.000;2023-05-20T08:58:29;3.97;;;1.00;;
10805;SDS011;5455;53.224;6.000;2023-05-20T09:00:58;2.63;;;1.10;;
10805;SDS011;5455;53.224;6.000;2023-05-20T09:03:25;2.40;;;0.80;;
10805;SDS011;5455;53.224;6.000;2023-05-20T09:05:52;2.27;;;0.90;;
10805;SDS011;5455;53.224;6.000;2023-05-20T09:08:28;1.67;;;0.90;;
10805;SDS011;5455;53.224;6.000;2023-05-20T09:10:56;1.77;;;1.47;;
10805;SDS011;5455;53.224;6.000;2023-05-20T09:13:23;1.43;;;0.87;;
10805;SDS011;5455;53.224;6.000;2023-05-20T09:15:50;1.30;;;0.80;;
10805;SDS011;5455;53.224;6.000;2023-05-20T09:18:17;1.87;;;1.00;;
10805;SDS011;5455;53.224;6.000;2023-05-20T09:20:49;2.97;;;1.20;;
10805;SDS011;5455;53.224;6.000;2023-05-20T09:23:18;2.17;;;0.80;;
10805;SDS011;5455;53.224;6.000;2023-05-20T09:25:50;3.10;;;0.73;;
10805;SDS011;5455;53.224;6.000;2023-05-20T09:28:22;3.03;;;1.27;;
10805;SDS011;5455;53.224;6.000;2023-05-20T09:30:55;1.90;;;0.80;;
10805;SDS011;5455;53.224;6.000;2023-05-20T09:33:27;1.60;;;0.80;;
10805;SDS011;5455;53.224;6.000;2023-05-20T09:36:06;2.43;;;1.00;;
10805;SDS011;5455;53.224;6.000;2023-05-20T09:38:36;5.10;;;1.20;;
10805;SDS011;5455;53.224;6.000;2023-05-20T09:41:06;3.00;;;0.90;;
10805;SDS011;5455;53.224;6.000;2023-05-20T09:43:36;4.07;;;1.00;;
10805;SDS011;5455;53.224;6.000;2023-05-20T09:46:05;2.80;;;1.20;;
10805;SDS011;5455;53.224;6.000;2023-05-20T09:48:37;4.60;;;1.00;;
10805;SDS011;5455;53.224;6.000;2023-05-20T09:51:05;2.83;;;1.20;;
10805;SDS011;5455;53.224;6.000;2023-05-20T09:53:33;3.90;;;0.90;;
10805;SDS011;5455;53.224;6.000;2023-05-20T09:56:02;2.70;;;0.87;;
10805;SDS011;5455;53.224;6.000;2023-05-20T09:58:29;3.93;;;1.00;;
10805;SDS011;5455;53.224;6.000;2023-05-20T10:00:56;3.63;;;1.10;;
10805;SDS011;5455;53.224;6.000;2023-05-20T10:03:23;2.63;;;1.20;;
10805;SDS011;5455;53.224;6.000;2023-05-20T10:06:00;2.43;;;1.00;;
10805;SDS011;5455;53.224;6.000;2023-05-20T10:19:56;2.40;;;1.10;;
10805;SDS011;5455;53.224;6.000;2023-05-20T10:22:27;2.00;;;1.00;;
10805;SDS011;5455;53.224;6.000;2023-05-20T10:24:58;2.13;;;1.10;;
10805;SDS011;5455;53.224;6.000;2023-05-20T10:27:26;4.50;;;1.37;;
10805;SDS011;5455;53.224;6.000;2023-05-20T10:29:56;10.47;;;1.30;;
10805;SDS011;5455;53.224;6.000;2023-05-20T10:32:27;5.00;;;1.20;;
10805;SDS011;5455;53.224;6.000;2023-05-20T10:35:01;4.23;;;1.40;;
10805;SDS011;5455;53.224;6.000;2023-05-20T10:37:32;6.50;;;1.43;;
10805;SDS011;5455;53.224;6.000;2023-05-20T10:42:38;5.57;;;1.30;;
10805;SDS011;5455;53.224;6.000;2023-05-20T10:45:06;5.53;;;1.53;;
10805;SDS011;5455;53.224;6.000;2023-05-20T10:47:34;3.07;;;1.20;;
10805;SDS011;5455;53.224;6.000;2023-05-20T10:50:02;3.93;;;1.20;;
10805;SDS011;5455;53.224;6.000;2023-05-20T10:52:35;5.20;;;1.70;;
10805;SDS011;5455;53.224;6.000;2023-05-20T10:55:02;7.27;;;1.70;;
10805;SDS011;5455;53.224;6.000;2023-05-20T10:57:30;6.13;;;1.37;;
10805;SDS011;5455;53.224;6.000;2023-05-20T10:59:57;2.13;;;1.10;;
10805;SDS011;5455;53.224;6.000;2023-05-20T11:02:26;5.00;;;1.50;;
10805;SDS011;5455;53.224;6.000;2023-05-20T11:04:57;4.87;;;1.30;;
10805;SDS011;5455;53.224;6.000;2023-05-20T11:07:28;3.70;;;1.37;;
10805;SDS011;5455;53.224;6.000;2023-05-20T11:09:56;6.97;;;1.60;;
10805;SDS011;5455;53.224;6.000;2023-05-20T11:12:24;3.50;;;1.17;;
10805;SDS011;5455;53.224;6.000;2023-05-20T11:14:52;4.13;;;1.47;;
10805;SDS011;5455;53.224;6.000;2023-05-20T11:17:19;4.87;;;1.40;;
10805;SDS011;5455;53.224;6.000;2023-05-20T11:19:47;2.90;;;1.13;;
10805;SDS011;5455;53.224;6.000;2023-05-20T11:22:15;3.53;;;1.23;;
10805;SDS011;5455;53.224;6.000;2023-05-20T11:24:42;7.80;;;1.40;;
10805;SDS011;5455;53.224;6.000;2023-05-20T11:27:09;3.37;;;1.37;;
10805;SDS011;5455;53.224;6.000;2023-05-20T11:29:36;7.87;;;1.80;;
10805;SDS011;5455;53.224;6.000;2023-05-20T11:32:06;4.77;;;1.30;;
10805;SDS011;5455;53.224;6.000;2023-05-20T11:34:34;5.50;;;1.20;;
10805;SDS011;5455;53.224;6.000;2023-05-20T11:37:06;2.97;;;1.50;;
10805;SDS011;5455;53.224;6.000;2023-05-20T11:39:35;2.07;;;1.40;;
10805;SDS011;5455;53.224;6.000;2023-05-20T11:42:03;4.97;;;1.63;;
10805;SDS011;5455;53.224;6.000;2023-05-20T11:44:31;2.63;;;1.13;;
10805;SDS011;5455;53.224;6.000;2023-05-20T11:47:00;3.80;;;1.57;;
10805;SDS011;5455;53.224;6.000;2023-05-20T11:49:28;5.33;;;1.80;;
10805;SDS011;5455;53.224;6.000;2023-05-20T11:51:56;6.63;;;1.63;;
10805;SDS011;5455;53.224;6.000;2023-05-20T11:54:24;2.70;;;1.30;;
10805;SDS011;5455;53.224;6.000;2023-05-20T11:56:52;2.03;;;1.00;;
10805;SDS011;5455;53.224;6.000;2023-05-20T11:59:19;2.97;;;1.30;;
10805;SDS011;5455;53.224;6.000;2023-05-20T12:01:49;3.60;;;1.63;;
10805;SDS011;5455;53.224;6.000;2023-05-20T12:04:16;8.87;;;1.70;;
10805;SDS011;5455;53.224;6.000;2023-05-20T12:06:44;3.07;;;1.60;;
10805;SDS011;5455;53.224;6.000;2023-05-20T12:09:12;4.63;;;1.70;;
10805;SDS011;5455;53.224;6.000;2023-05-20T12:11:39;2.40;;;1.27;;
10805;SDS011;5455;53.224;6.000;2023-05-20T12:14:07;7.70;;;1.80;;
10805;SDS011;5455;53.224;6.000;2023-05-20T12:16:35;3.93;;;1.63;;
10805;SDS011;5455;53.224;6.000;2023-05-20T12:19:03;5.63;;;1.33;;
10805;SDS011;5455;53.224;6.000;2023-05-20T12:21:30;3.07;;;1.50;;
10805;SDS011;5455;53.224;6.000;2023-05-20T12:23:58;4.30;;;1.40;;
10805;SDS011;5455;53.224;6.000;2023-05-20T12:26:26;3.40;;;1.63;;
10805;SDS011;5455;53.224;6.000;2023-05-20T12:28:54;5.93;;;1.70;;
10805;SDS011;5455;53.224;6.000;2023-05-20T12:31:22;2.87;;;1.90;;
10805;SDS011;5455;53.224;6.000;2023-05-20T12:33:49;2.43;;;1.60;;
10805;SDS011;5455;53.224;6.000;2023-05-20T12:36:16;7.00;;;1.50;;
10805;SDS011;5455;53.224;6.000;2023-05-20T12:38:45;6.70;;;2.13;;
10805;SDS011;5455;53.224;6.000;2023-05-20T12:41:12;3.23;;;1.87;;
10805;SDS011;5455;53.224;6.000;2023-05-20T12:43:39;3.57;;;1.63;;
10805;SDS011;5455;53.224;6.000;2023-05-20T12:46:07;5.57;;;1.67;;
10805;SDS011;5455;53.224;6.000;2023-05-20T12:48:34;2.03;;;1.50;;
10805;SDS011;5455;53.224;6.000;2023-05-20T12:51:02;3.27;;;1.57;;
10805;SDS011;5455;53.224;6.000;2023-05-20T12:53:30;6.73;;;1.67;;
10805;SDS011;5455;53.224;6.000;2023-05-20T12:55:57;4.63;;;1.77;;
10805;SDS011;5455;53.224;6.000;2023-05-20T12:58:24;4.37;;;1.80;;
10805;SDS011;5455;53.224;6.000;2023-05-20T13:00:51;4.33;;;1.80;;
10805;SDS011;5455;53.224;6.000;2023-05-20T13:03:18;6.97;;;1.93;;
10805;SDS011;5455;53.224;6.000;2023-05-20T13:05:45;4.07;;;1.93;;
10805;SDS011;5455;53.224;6.000;2023-05-20T13:08:12;4.40;;;1.53;;
10805;SDS011;5455;53.224;6.000;2023-05-20T13:10:40;4.03;;;1.27;;
10805;SDS011;5455;53.224;6.000;2023-05-20T13:13:07;3.43;;;2.10;;
10805;SDS011;5455;53.224;6.000;2023-05-20T13:15:34;9.47;;;2.00;;
10805;SDS011;5455;53.224;6.000;2023-05-20T13:18:02;6.10;;;2.00;;
10805;SDS011;5455;53.224;6.000;2023-05-20T13:20:31;7.70;;;2.00;;
10805;SDS011;5455;53.224;6.000;2023-05-20T13:22:59;3.53;;;1.90;;
10805;SDS011;5455;53.224;6.000;2023-05-20T13:25:26;6.03;;;1.80;;
10805;SDS011;5455;53.224;6.000;2023-05-20T13:27:53;3.10;;;1.17;;
10805;SDS011;5455;53.224;6.000;2023-05-20T13:30:21;4.37;;;1.77;;
10805;SDS011;5455;53.224;6.000;2023-05-20T13:32:48;7.23;;;2.00;;
10805;SDS011;5455;53.224;6.000;2023-05-20T13:35:15;5.07;;;2.23;;
10805;SDS011;5455;53.224;6.000;2023-05-20T13:37:43;11.53;;;1.80;;
10805;SDS011;5455;53.224;6.000;2023-05-20T13:40:10;4.83;;;2.00;;
10805;SDS011;5455;53.224;6.000;2023-05-20T13:42:37;5.13;;;1.73;;
10805;SDS011;5455;53.224;6.000;2023-05-20T13:45:05;9.33;;;2.13;;
10805;SDS011;5455;53.224;6.000;2023-05-20T13:47:32;5.40;;;2.30;;
10805;SDS011;5455;53.224;6.000;2023-05-20T13:50:00;4.77;;;1.93;;
10805;SDS011;5455;53.224;6.000;2023-05-20T13:52:29;5.07;;;1.87;;
10805;SDS011;5455;53.224;6.000;2023-05-20T13:54:56;5.10;;;1.90;;
10805;SDS011;5455;53.224;6.000;2023-05-20T13:57:23;9.30;;;2.43;;
10805;SDS011;5455;53.224;6.000;2023-05-20T13:59:50;3.43;;;1.63;;
10805;SDS011;5455;53.224;6.000;2023-05-20T14:02:17;6.00;;;1.97;;
10805;SDS011;5455;53.224;6.000;2023-05-20T14:04:44;3.03;;;1.93;;
10805;SDS011;5455;53.224;6.000;2023-05-20T14:07:12;5.27;;;1.77;;
10805;SDS011;5455;53.224;6.000;2023-05-20T14:09:39;3.80;;;1.67;;
10805;SDS011;5455;53.224;6.000;2023-05-20T14:12:06;8.77;;;1.80;;
10805;SDS011;5455;53.224;6.000;2023-05-20T14:14:33;5.20;;;1.73;;
10805;SDS011;5455;53.224;6.000;2023-05-20T14:17:01;4.63;;;1.77;;
10805;SDS011;5455;53.224;6.000;2023-05-20T14:19:27;4.30;;;1.80;;
10805;SDS011;5455;53.224;6.000;2023-05-20T14:21:55;4.70;;;1.70;;
10805;SDS011;5455;53.224;6.000;2023-05-20T14:24:24;3.93;;;2.00;;
10805;SDS011;5455;53.224;6.000;2023-05-20T14:26:51;3.23;;;1.37;;
10805;SDS011;5455;53.224;6.000;2023-05-20T14:29:18;6.37;;;2.50;;
10805;SDS011;5455;53.224;6.000;2023-05-20T14:31:45;5.50;;;1.80;;
10805;SDS011;5455;53.224;6.000;2023-05-20T14:34:12;4.30;;;1.53;;
10805;SDS011;5455;53.224;6.000;2023-05-20T14:36:40;21.47;;;9.13;;
10805;SDS011;5455;53.224;6.000;2023-05-20T14:39:07;3.97;;;1.80;;
10805;SDS011;5455;53.224;6.000;2023-05-20T14:41:35;4.63;;;1.83;;
10805;SDS011;5455;53.224;6.000;2023-05-20T14:44:02;6.43;;;1.90;;
10805;SDS011;5455;53.224;6.000;2023-05-20T14:46:29;7.40;;;1.80;;
10805;SDS011;5455;53.224;6.000;2023-05-20T14:48:57;6.37;;;1.50;;
10805;SDS011;5455;53.224;6.000;2023-05-20T14:51:24;7.67;;;1.90;;
10805;SDS011;5455;53.224;6.000;2023-05-20T14:53:51;3.27;;;1.47;;
10805;SDS011;5455;53.224;6.000;2023-05-20T14:56:18;4.53;;;2.37;;
10805;SDS011;5455;53.224;6.000;2023-05-20T14:58:45;4.37;;;1.97;;
10805;SDS011;5455;53.224;6.000;2023-05-20T15:01:12;3.57;;;1.80;;
10805;SDS011;5455;53.224;6.000;2023-05-20T15:03:40;3.70;;;2.00;;
10805;SDS011;5455;53.224;6.000;2023-05-20T15:06:07;4.00;;;1.50;;
10805;SDS011;5455;53.224;6.000;2023-05-20T15:08:34;7.53;;;2.00;;
10805;SDS011;5455;53.224;6.000;2023-05-20T15:11:01;5.57;;;1.90;;
10805;SDS011;5455;53.224;6.000;2023-05-20T15:13:28;2.60;;;1.80;;
10805;SDS011;5455;53.224;6.000;2023-05-20T15:15:55;4.73;;;2.13;;
10805;SDS011;5455;53.224;6.000;2023-05-20T15:18:22;3.07;;;1.90;;
10805;SDS011;5455;53.224;6.000;2023-05-20T15:20:49;5.40;;;2.13;;